Aviation Digital Data Service (ADDS)

Output produced by METARs form (0240 UTC 22 February 2019)
found at http://www.aviationweather.gov/metar/data/
 
METAR text: OIZB 220200Z 14006KT CAVOK M02/M08 Q1025
Conditions at: OIZB (ZABOL , IR) observed 0200 UTC 22 February 2019
Temperature: -2.0°C (28°F)
Dewpoint: -8.0°C (18°F) [RH = 63%]
Pressure (altimeter): 30.27 inches Hg (1025.0 mb)
Winds: from the SE (140 degrees) at 7 MPH (6 knots; 3.1 m/s)
Visibility: 6 or more miles (10+ km)
Ceiling: ceiling and visibility are OK
Clouds: unknown
Weather: no significant weather observed at this time

METAR text: OIZB 220000Z 11004KT CAVOK M01/M08 Q1025
Conditions at: OIZB (ZABOL , IR) observed 0000 UTC 22 February 2019
Temperature: -1.0°C (30°F)
Dewpoint: -8.0°C (18°F) [RH = 59%]
Pressure (altimeter): 30.27 inches Hg (1025.0 mb)
Winds: from the ESE (110 degrees) at 5 MPH (4 knots; 2.1 m/s)
Visibility: 6 or more miles (10+ km)
Ceiling: ceiling and visibility are OK
Clouds: unknown
Weather: no significant weather observed at this time

METAR text: OIZB 212100Z 11004KT CAVOK 01/M07 Q1025
Conditions at: OIZB (ZABOL , IR) observed 2100 UTC 21 February 2019
Temperature: 1.0°C (34°F)
Dewpoint: -7.0°C (19°F) [RH = 55%]
Pressure (altimeter): 30.27 inches Hg (1025.0 mb)
Winds: from the ESE (110 degrees) at 5 MPH (4 knots; 2.1 m/s)
Visibility: 6 or more miles (10+ km)
Ceiling: ceiling and visibility are OK
Clouds: unknown
Weather: no significant weather observed at this time

METAR text: OIZB 212000Z 14004KT CAVOK 01/M07 Q1026
Conditions at: OIZB (ZABOL , IR) observed 2000 UTC 21 February 2019
Temperature: 1.0°C (34°F)
Dewpoint: -7.0°C (19°F) [RH = 55%]
Pressure (altimeter): 30.30 inches Hg (1026.0 mb)
Winds: from the SE (140 degrees) at 5 MPH (4 knots; 2.1 m/s)
Visibility: 6 or more miles (10+ km)
Ceiling: ceiling and visibility are OK
Clouds: unknown
Weather: no significant weather observed at this time

METAR text: OIZB 211900Z 15004KT CAVOK 03/M06 Q1026
Conditions at: OIZB (ZABOL , IR) observed 1900 UTC 21 February 2019
Temperature: 3.0°C (37°F)
Dewpoint: -6.0°C (21°F) [RH = 52%]
Pressure (altimeter): 30.30 inches Hg (1026.0 mb)
Winds: from the SSE (150 degrees) at 5 MPH (4 knots; 2.1 m/s)
Visibility: 6 or more miles (10+ km)
Ceiling: ceiling and visibility are OK
Clouds: unknown
Weather: no significant weather observed at this time

METAR text: OIZB 211800Z 19006KT CAVOK 05/M06 Q1026
Conditions at: OIZB (ZABOL , IR) observed 1800 UTC 21 February 2019
Temperature: 5.0°C (41°F)
Dewpoint: -6.0°C (21°F) [RH = 45%]
Pressure (altimeter): 30.30 inches Hg (1026.0 mb)
Winds: from the S (190 degrees) at 7 MPH (6 knots; 3.1 m/s)
Visibility: 6 or more miles (10+ km)
Ceiling: ceiling and visibility are OK
Clouds: unknown
Weather: no significant weather observed at this time

METAR text: OIZB 211700Z 15004KT CAVOK 04/M07 Q1026
Conditions at: OIZB (ZABOL , IR) observed 1700 UTC 21 February 2019
Temperature: 4.0°C (39°F)
Dewpoint: -7.0°C (19°F) [RH = 44%]
Pressure (altimeter): 30.30 inches Hg (1026.0 mb)
Winds: from the SSE (150 degrees) at 5 MPH (4 knots; 2.1 m/s)
Visibility: 6 or more miles (10+ km)
Ceiling: ceiling and visibility are OK
Clouds: unknown
Weather: no significant weather observed at this time

METAR text: OIZB 211600Z 19004KT CAVOK 06/M06 Q1027
Conditions at: OIZB (ZABOL , IR) observed 1600 UTC 21 February 2019
Temperature: 6.0°C (43°F)
Dewpoint: -6.0°C (21°F) [RH = 42%]
Pressure (altimeter): 30.32 inches Hg (1027.0 mb)
Winds: from the S (190 degrees) at 5 MPH (4 knots; 2.1 m/s)
Visibility: 6 or more miles (10+ km)
Ceiling: ceiling and visibility are OK
Clouds: unknown
Weather: no significant weather observed at this time

METAR text: OIZB 211500Z 35004KT CAVOK 08/M05 Q1026
Conditions at: OIZB (ZABOL , IR) observed 1500 UTC 21 February 2019
Temperature: 8.0°C (46°F)
Dewpoint: -5.0°C (23°F) [RH = 39%]
Pressure (altimeter): 30.30 inches Hg (1026.0 mb)
Winds: from the N (350 degrees) at 5 MPH (4 knots; 2.1 m/s)
Visibility: 6 or more miles (10+ km)
Ceiling: ceiling and visibility are OK
Clouds: unknown
Weather: no significant weather observed at this time

METAR text: OIZB 211400Z 01004KT CAVOK 10/M05 Q1026
Conditions at: OIZB (ZABOL , IR) observed 1400 UTC 21 February 2019
Temperature: 10.0°C (50°F)
Dewpoint: -5.0°C (23°F) [RH = 34%]
Pressure (altimeter): 30.30 inches Hg (1026.0 mb)
Winds: from the N (10 degrees) at 5 MPH (4 knots; 2.1 m/s)
Visibility: 6 or more miles (10+ km)
Ceiling: ceiling and visibility are OK
Clouds: unknown
Weather: no significant weather observed at this time

METAR text: OIZB 211300Z 36006KT CAVOK 14/M05 Q1023
Conditions at: OIZB (ZABOL , IR) observed 1300 UTC 21 February 2019
Temperature: 14.0°C (57°F)
Dewpoint: -5.0°C (23°F) [RH = 26%]
Pressure (altimeter): 30.21 inches Hg (1023.0 mb)
Winds: from the N (360 degrees) at 7 MPH (6 knots; 3.1 m/s)
Visibility: 6 or more miles (10+ km)
Ceiling: ceiling and visibility are OK
Clouds: unknown
Weather: no significant weather observed at this time

METAR text: OIZB 211200Z 34008KT CAVOK 13/M05 Q1025
Conditions at: OIZB (ZABOL , IR) observed 1200 UTC 21 February 2019
Temperature: 13.0°C (55°F)
Dewpoint: -5.0°C (23°F) [RH = 28%]
Pressure (altimeter): 30.27 inches Hg (1025.0 mb)
Winds: from the NNW (340 degrees) at 9 MPH (8 knots; 4.1 m/s)
Visibility: 6 or more miles (10+ km)
Ceiling: ceiling and visibility are OK
Clouds: unknown
Weather: no significant weather observed at this time

METAR text: OIZB 211100Z 33016KT CAVOK 13/M06 Q1025
Conditions at: OIZB (ZABOL , IR) observed 1100 UTC 21 February 2019
Temperature: 13.0°C (55°F)
Dewpoint: -6.0°C (21°F) [RH = 26%]
Pressure (altimeter): 30.27 inches Hg (1025.0 mb)
Winds: from the NNW (330 degrees) at 18 MPH (16 knots; 8.2 m/s)
Visibility: 6 or more miles (10+ km)
Ceiling: ceiling and visibility are OK
Clouds: unknown
Weather: no significant weather observed at this time

METAR text: OIZB 211000Z 33012KT CAVOK 12/M05 Q1026
Conditions at: OIZB (ZABOL , IR) observed 1000 UTC 21 February 2019
Temperature: 12.0°C (54°F)
Dewpoint: -5.0°C (23°F) [RH = 30%]
Pressure (altimeter): 30.30 inches Hg (1026.0 mb)
Winds: from the NNW (330 degrees) at 14 MPH (12 knots; 6.2 m/s)
Visibility: 6 or more miles (10+ km)
Ceiling: ceiling and visibility are OK
Clouds: unknown
Weather: no significant weather observed at this time

METAR text: OIZB 210900Z 33016KT CAVOK 11/M05 Q1027
Conditions at: OIZB (ZABOL , IR) observed 0900 UTC 21 February 2019
Temperature: 11.0°C (52°F)
Dewpoint: -5.0°C (23°F) [RH = 32%]
Pressure (altimeter): 30.32 inches Hg (1027.0 mb)
Winds: from the NNW (330 degrees) at 18 MPH (16 knots; 8.2 m/s)
Visibility: 6 or more miles (10+ km)
Ceiling: ceiling and visibility are OK
Clouds: unknown
Weather: no significant weather observed at this time

METAR text: OIZB 210800Z 33016KT CAVOK 10/M05 Q1028
Conditions at: OIZB (ZABOL , IR) observed 0800 UTC 21 February 2019
Temperature: 10.0°C (50°F)
Dewpoint: -5.0°C (23°F) [RH = 34%]
Pressure (altimeter): 30.35 inches Hg (1028.0 mb)
Winds: from the NNW (330 degrees) at 18 MPH (16 knots; 8.2 m/s)
Visibility: 6 or more miles (10+ km)
Ceiling: ceiling and visibility are OK
Clouds: unknown
Weather: no significant weather observed at this time

METAR text: OIZB 210700Z 33018KT CAVOK 09/M05 Q1029
Conditions at: OIZB (ZABOL , IR) observed 0700 UTC 21 February 2019
Temperature: 9.0°C (48°F)
Dewpoint: -5.0°C (23°F) [RH = 37%]
Pressure (altimeter): 30.38 inches Hg (1029.0 mb)
Winds: from the NNW (330 degrees) at 21 MPH (18 knots; 9.3 m/s)
Visibility: 6 or more miles (10+ km)
Ceiling: ceiling and visibility are OK
Clouds: unknown
Weather: no significant weather observed at this time

METAR text: OIZB 210600Z 33019KT CAVOK 07/M04 Q1029
Conditions at: OIZB (ZABOL , IR) observed 0600 UTC 21 February 2019
Temperature: 7.0°C (45°F)
Dewpoint: -4.0°C (25°F) [RH = 45%]
Pressure (altimeter): 30.38 inches Hg (1029.0 mb)
Winds: from the NNW (330 degrees) at 22 MPH (19 knots; 9.8 m/s)
Visibility: 6 or more miles (10+ km)
Ceiling: ceiling and visibility are OK
Clouds: unknown
Weather: no significant weather observed at this time

METAR text: OIZB 210500Z 33019KT CAVOK 06/M03 Q1029
Conditions at: OIZB (ZABOL , IR) observed 0500 UTC 21 February 2019
Temperature: 6.0°C (43°F)
Dewpoint: -3.0°C (27°F) [RH = 52%]
Pressure (altimeter): 30.38 inches Hg (1029.0 mb)
Winds: from the NNW (330 degrees) at 22 MPH (19 knots; 9.8 m/s)
Visibility: 6 or more miles (10+ km)
Ceiling: ceiling and visibility are OK
Clouds: unknown
Weather: no significant weather observed at this time

METAR text: OIZB 210400Z 32014KT CAVOK 05/M03 Q1029
Conditions at: OIZB (ZABOL , IR) observed 0400 UTC 21 February 2019
Temperature: 5.0°C (41°F)
Dewpoint: -3.0°C (27°F) [RH = 56%]
Pressure (altimeter): 30.38 inches Hg (1029.0 mb)
Winds: from the NW (320 degrees) at 16 MPH (14 knots; 7.2 m/s)
Visibility: 6 or more miles (10+ km)
Ceiling: ceiling and visibility are OK
Clouds: unknown
Weather: no significant weather observed at this time

METAR text: OIZB 210300Z 33012KT CAVOK 02/M04 Q1028
Conditions at: OIZB (ZABOL , IR) observed 0300 UTC 21 February 2019
Temperature: 2.0°C (36°F)
Dewpoint: -4.0°C (25°F) [RH = 64%]
Pressure (altimeter): 30.35 inches Hg (1028.0 mb)
Winds: from the NNW (330 degrees) at 14 MPH (12 knots; 6.2 m/s)
Visibility: 6 or more miles (10+ km)
Ceiling: ceiling and visibility are OK
Clouds: unknown
Weather: no significant weather observed at this time

METAR text: OIZB 210200Z 32016KT CAVOK 02/M04 Q1027
Conditions at: OIZB (ZABOL , IR) observed 0200 UTC 21 February 2019
Temperature: 2.0°C (36°F)
Dewpoint: -4.0°C (25°F) [RH = 64%]
Pressure (altimeter): 30.32 inches Hg (1027.0 mb)
Winds: from the NW (320 degrees) at 18 MPH (16 knots; 8.2 m/s)
Visibility: 6 or more miles (10+ km)
Ceiling: ceiling and visibility are OK
Clouds: unknown
Weather: no significant weather observed at this time

METAR text: OIZB 210000Z 33010KT CAVOK 02/M04 Q1026
Conditions at: OIZB (ZABOL , IR) observed 0000 UTC 21 February 2019
Temperature: 2.0°C (36°F)
Dewpoint: -4.0°C (25°F) [RH = 64%]
Pressure (altimeter): 30.30 inches Hg (1026.0 mb)
Winds: from the NNW (330 degrees) at 12 MPH (10 knots; 5.1 m/s)
Visibility: 6 or more miles (10+ km)
Ceiling: ceiling and visibility are OK
Clouds: unknown
Weather: no significant weather observed at this time

METAR text: OIZB 202100Z 34019KT CAVOK 04/M03 Q1025
Conditions at: OIZB (ZABOL , IR) observed 2100 UTC 20 February 2019
Temperature: 4.0°C (39°F)
Dewpoint: -3.0°C (27°F) [RH = 60%]
Pressure (altimeter): 30.27 inches Hg (1025.0 mb)
Winds: from the NNW (340 degrees) at 22 MPH (19 knots; 9.8 m/s)
Visibility: 6 or more miles (10+ km)
Ceiling: ceiling and visibility are OK
Clouds: unknown
Weather: no significant weather observed at this time

METAR text: OIZB 202000Z 34025KT 9999 FEW040 04/M03 Q1025
Conditions at: OIZB (ZABOL , IR) observed 2000 UTC 20 February 2019
Temperature: 4.0°C (39°F)
Dewpoint: -3.0°C (27°F) [RH = 60%]
Pressure (altimeter): 30.27 inches Hg (1025.0 mb)
Winds: from the NNW (340 degrees) at 29 MPH (25 knots; 12.9 m/s)
Visibility: 6 or more miles (10+ km)
Ceiling: at least 12,000 feet AGL
Clouds: few clouds at 4000 feet AGL
Weather: no significant weather observed at this time

METAR text: OIZB 201900Z 34025KT 9999 FEW035 05/M02 Q1025
Conditions at: OIZB (ZABOL , IR) observed 1900 UTC 20 February 2019
Temperature: 5.0°C (41°F)
Dewpoint: -2.0°C (28°F) [RH = 60%]
Pressure (altimeter): 30.27 inches Hg (1025.0 mb)
Winds: from the NNW (340 degrees) at 29 MPH (25 knots; 12.9 m/s)
Visibility: 6 or more miles (10+ km)
Ceiling: at least 12,000 feet AGL
Clouds: few clouds at 3500 feet AGL
Weather: no significant weather observed at this time

METAR text: OIZB 201800Z 34027KT 9999 FEW035 06/M02 Q1024
Conditions at: OIZB (ZABOL , IR) observed 1800 UTC 20 February 2019
Temperature: 6.0°C (43°F)
Dewpoint: -2.0°C (28°F) [RH = 56%]
Pressure (altimeter): 30.24 inches Hg (1024.0 mb)
Winds: from the NNW (340 degrees) at 31 MPH (27 knots; 13.9 m/s)
Visibility: 6 or more miles (10+ km)
Ceiling: at least 12,000 feet AGL
Clouds: few clouds at 3500 feet AGL
Weather: no significant weather observed at this time

METAR text: OIZB 201700Z 34027KT 9999 FEW035 07/M01 Q1024
Conditions at: OIZB (ZABOL , IR) observed 1700 UTC 20 February 2019
Temperature: 7.0°C (45°F)
Dewpoint: -1.0°C (30°F) [RH = 57%]
Pressure (altimeter): 30.24 inches Hg (1024.0 mb)
Winds: from the NNW (340 degrees) at 31 MPH (27 knots; 13.9 m/s)
Visibility: 6 or more miles (10+ km)
Ceiling: at least 12,000 feet AGL
Clouds: few clouds at 3500 feet AGL
Weather: no significant weather observed at this time

METAR text: OIZB 201600Z 34025KT 9999 SCT035 07/M01 Q1023
Conditions at: OIZB (ZABOL , IR) observed 1600 UTC 20 February 2019
Temperature: 7.0°C (45°F)
Dewpoint: -1.0°C (30°F) [RH = 57%]
Pressure (altimeter): 30.21 inches Hg (1023.0 mb)
Winds: from the NNW (340 degrees) at 29 MPH (25 knots; 12.9 m/s)
Visibility: 6 or more miles (10+ km)
Ceiling: at least 12,000 feet AGL
Clouds: scattered clouds at 3500 feet AGL
Weather: no significant weather observed at this time

METAR text: OIZB 201500Z 34027KT 9999 FEW030CB SCT035 07/M00 Q1021
Conditions at: OIZB (ZABOL , IR) observed 1500 UTC 20 February 2019
Temperature: 7.0°C (45°F)
Dewpoint: 0.0°C (32°F) [RH = 61%]
Pressure (altimeter): 30.15 inches Hg (1021.0 mb)
Winds: from the NNW (340 degrees) at 31 MPH (27 knots; 13.9 m/s)
Visibility: 6 or more miles (10+ km)
Ceiling: at least 12,000 feet AGL
Clouds: few clouds at 3000 feet AGL
scattered clouds at 3500 feet AGL
Weather: no significant weather observed at this time